Time;durP1;ratioP1;P1;durP2;ratioP2;P2;SDS_P1;SDS_P2;PMS_P1;PMS_P2;Temp;Humidity;BMP_temperature;BMP_pressure;BME280_temperature;BME280_humidity;BME280_pressure;Samples;Min_cycle;Max_cycle;Signal;HPM_P1;HPM_P2
2022/10/11 00:00:43;;;;;;;;;;;;;;;21.93;37.81;99639.66;4505490;31;35528;-84
2022/10/11 00:03:10;;;;;;;;;;;;;;;21.84;37.96;99642.56;4510526;31;34770;-84
2022/10/11 00:05:38;;;;;;;;;;;;;;;21.93;37.91;99638.78;4485164;31;33517;-88
2022/10/11 00:08:05;;;;;;;;;;;;;;;22.05;37.72;99644.63;4489979;31;35132;-87
2022/10/11 00:10:32;;;;;;;;;;;;;;;22.16;37.51;99630.28;4490543;31;34270;-83
2022/10/11 00:12:59;;;;;;;;;;;;;;;21.96;37.93;99639.59;4495141;31;34840;-84
2022/10/11 00:15:26;;;;;;;;;;;;;;;21.95;37.99;99637.00;4507280;31;34150;-83
2022/10/11 00:17:54;;;;;;;;;;;;;;;21.81;38.11;99640.84;4486271;31;33526;-84
2022/10/11 00:20:36;;;;;;;;;;;;;;;21.91;37.95;99630.06;4515569;31;737131;-84
2022/10/11 00:23:17;;;;;;;;;;;;;;;22.43;37.07;99631.34;4519110;31;733096;-84
2022/10/11 00:25:59;;;;;;;;;;;;;;;22.28;37.31;99633.50;4519034;31;730317;-84
2022/10/11 00:28:40;;;;;;;;;;;;;;;21.92;37.71;99631.78;4507935;31;732430;-93
2022/10/11 00:31:22;;;;;;;;;;;;;;;21.61;38.29;99640.50;4513159;31;730808;-84
2022/10/11 00:34:02;;;;;;;;;;;;;;;22.40;36.73;99620.84;4471755;31;788884;-83
2022/10/11 00:36:42;;;;;;;;;;;;;;;22.03;37.07;99630.59;4473980;31;788311;-84
2022/10/11 00:39:25;;;;;;;;;;;;;;;21.58;37.98;99630.00;4487564;31;791119;-84
2022/10/11 00:42:09;;;;;;;;;;;;;;;21.82;37.70;99624.12;4471130;31;788088;-84
2022/10/11 00:44:49;;;;;;;;;;;;;;;22.06;37.30;99621.75;4510237;31;733711;-83
2022/10/11 00:47:31;;;;;;;;;;;;;;;21.90;37.37;99623.06;4504038;31;778305;-84
2022/10/11 00:50:10;;;;;;;;;;;;;;;21.67;37.60;99613.97;4511784;31;731908;-92
2022/10/11 00:52:57;;;;;;;;;;;;;;;21.21;38.08;99612.37;4504082;31;733441;-93
2022/10/11 00:56:00;;;;;;;;;;;;;;;21.29;38.34;99610.47;4516722;31;736393;-84
2022/10/11 00:58:42;;;;;;;;;;;;;;;21.22;38.49;99608.88;4492061;31;789416;-84
2022/10/11 01:01:21;;;;;;;;;;;;;;;21.57;37.77;99617.72;4515493;31;732918;-84
2022/10/11 01:04:03;;;;;;;;;;;;;;;21.02;38.43;99613.72;4476100;31;789463;-84
2022/10/11 01:06:43;;;;;;;;;;;;;;;21.02;38.62;99616.34;4477191;31;793513;-94
2022/10/11 01:09:23;;;;;;;;;;;;;;;21.70;37.44;99616.50;4514781;31;744048;-90
2022/10/11 01:12:05;;;;;;;;;;;;;;;21.33;37.82;99614.78;4474072;31;791743;-84
2022/10/11 01:14:47;;;;;;;;;;;;;;;21.68;37.46;99618.31;4514688;31;738439;-94
2022/10/11 01:17:46;;;;;;;;;;;;;;;21.30;37.86;99611.31;4518209;31;739818;-84
2022/10/11 01:20:25;;;;;;;;;;;;;;;21.23;38.00;99613.22;4512187;31;739493;-84
2022/10/11 01:23:14;;;;;;;;;;;;;;;21.27;37.89;99608.75;4494688;31;794761;-93
2022/10/11 01:25:59;;;;;;;;;;;;;;;21.84;37.07;99613.50;4474163;31;789072;-84
2022/10/11 01:28:50;;;;;;;;;;;;;;;21.46;37.47;99609.22;4517882;31;736375;-84
2022/10/11 01:31:49;;;;;;;;;;;;;;;21.78;36.96;99600.47;4492832;31;790626;-84
2022/10/11 01:34:29;;;;;;;;;;;;;;;21.83;36.75;99604.72;4504827;31;730080;-84
2022/10/11 01:37:20;;;;;;;;;;;;;;;21.80;36.72;99599.53;4515789;31;734665;-94
2022/10/11 01:40:05;;;;;;;;;;;;;;;21.78;36.83;99601.34;4469057;31;794218;-84
2022/10/11 01:42:46;;;;;;;;;;;;;;;21.38;37.27;99597.06;4518205;31;736105;-84
2022/10/11 01:45:26;;;;;;;;;;;;;;;21.18;37.75;99599.28;4478013;31;790749;-84
2022/10/11 01:48:09;;;;;;;;;;;;;;;21.41;37.72;99595.28;4488587;31;793094;-93
2022/10/11 01:50:55;;;;;;;;;;;;;;;21.08;37.97;99592.50;4485738;31;832086;-84
2022/10/11 01:53:41;;;;;;;;;;;;;;;20.94;38.35;99594.56;4516106;31;736655;-84
2022/10/11 01:56:25;;;;;;;;;;;;;;;21.38;37.54;99598.84;4505116;31;737729;-86
2022/10/11 01:59:06;;;;;;;;;;;;;;;20.83;38.19;99595.66;4519139;31;732788;-84
2022/10/11 02:01:50;;;;;;;;;;;;;;;21.25;37.89;99600.88;4506874;31;733853;-84
2022/10/11 02:04:34;;;;;;;;;;;;;;;21.25;37.93;99592.09;4478681;31;790466;-83
2022/10/11 02:07:26;;;;;;;;;;;;;;;21.27;37.95;99588.53;4512636;31;746539;-84
2022/10/11 02:10:08;;;;;;;;;;;;;;;21.36;37.86;99590.09;4503373;31;735727;-84
2022/10/11 02:12:48;;;;;;;;;;;;;;;21.01;38.22;99586.50;4485195;31;801293;-84
2022/10/11 02:15:30;;;;;;;;;;;;;;;21.24;38.18;99585.94;4517021;31;732450;-91
2022/10/11 02:18:15;;;;;;;;;;;;;;;20.88;38.55;99580.66;4517775;31;735440;-85
2022/10/11 02:20:59;;;;;;;;;;;;;;;21.21;38.16;99588.66;4515156;31;735639;-84
2022/10/11 02:23:41;;;;;;;;;;;;;;;21.16;38.19;99590.53;4517913;31;738785;-83
2022/10/11 02:26:20;;;;;;;;;;;;;;;21.19;38.17;99593.12;4518459;31;736890;-84
2022/10/11 02:29:03;;;;;;;;;;;;;;;21.23;38.21;99589.50;4507174;31;737522;-84
2022/10/11 02:31:44;;;;;;;;;;;;;;;21.12;38.20;99596.78;4501689;31;744674;-84
2022/10/11 02:34:36;;;;;;;;;;;;;;;20.62;38.88;99586.47;4510477;31;737287;-84
2022/10/11 02:37:17;;;;;;;;;;;;;;;21.00;38.61;99595.31;4490526;31;790039;-84
2022/10/11 02:40:02;;;;;;;;;;;;;;;21.11;38.58;99593.28;4466065;31;731234;-84
2022/10/11 02:42:46;;;;;;;;;;;;;;;21.13;38.45;99590.59;4490593;31;796997;-84
2022/10/11 02:45:54;;;;;;;;;;;;;;;20.72;38.90;99592.44;4510769;31;732424;-84
2022/10/11 02:48:38;;;;;;;;;;;;;;;20.71;38.73;99590.69;4485407;31;787070;-83
2022/10/11 02:51:20;;;;;;;;;;;;;;;21.26;37.69;99597.34;4493543;31;857448;-84
2022/10/11 02:54:00;;;;;;;;;;;;;;;21.25;37.75;99603.53;4518115;31;741083;-84
2022/10/11 02:56:41;;;;;;;;;;;;;;;20.84;38.27;99597.44;4515985;31;735152;-88
2022/10/11 02:59:23;;;;;;;;;;;;;;;21.37;37.51;99597.97;4470559;31;788302;-85
2022/10/11 03:02:02;;;;;;;;;;;;;;;21.36;37.32;99598.88;4505349;31;736536;-83
2022/10/11 03:04:44;;;;;;;;;;;;;;;21.02;37.67;99598.75;4503012;31;731598;-89
2022/10/11 03:07:24;;;;;;;;;;;;;;;21.24;37.52;99593.84;4508204;31;741882;-90
2022/10/11 03:10:05;;;;;;;;;;;;;;;21.24;37.64;99593.84;4490094;31;792089;-84
2022/10/11 03:12:47;;;;;;;;;;;;;;;21.30;37.15;99590.22;4458325;31;792595;-94
2022/10/11 03:15:30;;;;;;;;;;;;;;;20.84;37.74;99586.03;4495626;31;785676;-83
2022/10/11 03:18:11;;;;;;;;;;;;;;;20.78;37.98;99592.28;4473458;31;795705;-83
2022/10/11 03:20:53;;;;;;;;;;;;;;;21.22;37.27;99598.31;4512794;31;744065;-84
2022/10/11 03:23:34;;;;;;;;;;;;;;;20.83;37.69;99595.66;4518507;31;735596;-84
2022/10/11 03:26:18;;;;;;;;;;;;;;;21.14;37.49;99596.09;4497929;31;791089;-91
2022/10/11 03:28:57;;;;;;;;;;;;;;;21.11;37.63;99602.97;4509242;31;745634;-83
2022/10/11 03:31:39;;;;;;;;;;;;;;;20.69;38.14;99600.41;4472688;31;798413;-84
2022/10/11 03:34:19;;;;;;;;;;;;;;;20.99;37.99;99608.53;4506496;31;741256;-84
2022/10/11 03:36:58;;;;;;;;;;;;;;;20.99;38.07;99616.44;4492556;31;794250;-84
2022/10/11 03:39:40;;;;;;;;;;;;;;;20.58;38.48;99615.56;4471319;31;791019;-94
2022/10/11 03:42:21;;;;;;;;;;;;;;;21.16;37.98;99618.69;4517722;31;746628;-84
2022/10/11 03:45:03;;;;;;;;;;;;;;;21.10;37.85;99617.94;4517367;31;735401;-84
2022/10/11 03:47:45;;;;;;;;;;;;;;;20.69;38.26;99610.94;4470583;31;805604;-84
2022/10/11 03:50:26;;;;;;;;;;;;;;;20.96;38.62;99619.16;4488621;31;792745;-83
2022/10/11 03:53:07;;;;;;;;;;;;;;;20.74;39.23;99614.34;4514662;31;854323;-84
2022/10/11 03:55:53;;;;;;;;;;;;;;;20.46;39.48;99619.28;4497929;31;789847;-88
2022/10/11 03:58:33;;;;;;;;;;;;;;;21.06;38.58;99620.66;4518725;31;739376;-83
2022/10/11 04:01:12;;;;;;;;;;;;;;;20.99;38.64;99619.09;4506431;31;737109;-93
2022/10/11 04:03:56;;;;;;;;;;;;;;;21.12;38.67;99618.75;4509667;31;741312;-85
2022/10/11 04:06:37;;;;;;;;;;;;;;;20.75;39.04;99618.69;4513060;31;733737;-83
2022/10/11 04:09:18;;;;;;;;;;;;;;;21.12;38.88;99617.88;4518309;31;733816;-83
2022/10/11 04:12:01;;;;;;;;;;;;;;;20.77;39.32;99619.53;4496871;31;790249;-83
2022/10/11 04:14:41;;;;;;;;;;;;;;;21.24;38.92;99622.88;4503979;31;735616;-84
2022/10/11 04:17:21;;;;;;;;;;;;;;;21.14;39.00;99613.47;4463662;31;789423;-84
2022/10/11 04:20:03;;;;;;;;;;;;;;;21.03;39.39;99618.97;4479363;31;793803;-89
2022/10/11 04:22:45;;;;;;;;;;;;;;;20.71;39.79;99624.06;4485144;31;794020;-83
2022/10/11 04:25:26;;;;;;;;;;;;;;;21.26;39.04;99633.41;4493071;31;787375;-84
2022/10/11 04:28:07;;;;;;;;;;;;;;;21.36;38.83;99622.59;4509678;31;739487;-84
2022/10/11 04:30:49;;;;;;;;;;;;;;;21.01;39.25;99625.16;4505706;31;734989;-84
2022/10/11 04:33:30;;;;;;;;;;;;;;;20.92;39.34;99628.88;4504763;31;732581;-84
2022/10/11 04:36:09;;;;;;;;;;;;;;;21.48;38.32;99620.56;4509475;31;743696;-84
2022/10/11 04:38:51;;;;;;;;;;;;;;;21.12;38.60;99621.38;4503651;31;736888;-85
2022/10/11 04:41:33;;;;;;;;;;;;;;;21.48;38.19;99623.22;4476659;31;791607;-85
2022/10/11 04:44:13;;;;;;;;;;;;;;;21.28;38.56;99621.03;4485644;31;783913;-85
2022/10/11 04:46:54;;;;;;;;;;;;;;;21.22;38.83;99622.06;4518054;31;738637;-85
2022/10/11 04:49:35;;;;;;;;;;;;;;;20.81;39.24;99623.84;4504624;31;751405;-95
2022/10/11 04:52:16;;;;;;;;;;;;;;;20.93;39.57;99621.50;4502888;31;740586;-95
2022/10/11 04:55:01;;;;;;;;;;;;;;;20.46;40.22;99629.81;4493687;31;911834;-85
2022/10/11 04:57:42;;;;;;;;;;;;;;;20.42;40.47;99629.00;4470817;31;792346;-85
2022/10/11 05:00:23;;;;;;;;;;;;;;;21.12;39.31;99631.06;4511187;31;736413;-83
2022/10/11 05:03:04;;;;;;;;;;;;;;;20.55;39.94;99626.16;4504187;31;746876;-85
2022/10/11 05:05:45;;;;;;;;;;;;;;;20.12;40.88;99629.63;4469584;31;785335;-85
2022/10/11 05:08:25;;;;;;;;;;;;;;;20.69;39.89;99621.47;4469879;31;789788;-85
2022/10/11 05:11:06;;;;;;;;;;;;;;;20.99;39.23;99624.34;4517781;31;740785;-87
2022/10/11 05:13:45;;;;;;;;;;;;;;;20.63;39.63;99632.12;4518348;31;740407;-95
2022/10/11 05:16:27;;;;;;;;;;;;;;;20.92;39.18;99622.75;4517873;31;737743;-86
2022/10/11 05:19:07;;;;;;;;;;;;;;;20.74;39.53;99627.50;4473629;31;792499;-85
2022/10/11 05:21:47;;;;;;;;;;;;;;;20.37;39.93;99636.13;4501806;31;790193;-85
2022/10/11 05:24:28;;;;;;;;;;;;;;;20.86;39.31;99632.50;4501927;31;747352;-85
2022/10/11 05:27:08;;;;;;;;;;;;;;;21.18;38.78;99646.75;4472976;31;791115;-85
2022/10/11 05:29:49;;;;;;;;;;;;;;;21.42;38.32;99645.34;4493068;31;793922;-85
2022/10/11 05:32:29;;;;;;;;;;;;;;;21.05;38.72;99635.59;4500366;31;803266;-85
2022/10/11 05:35:10;;;;;;;;;;;;;;;20.98;39.10;99643.69;4505368;31;727306;-85
2022/10/11 05:37:50;;;;;;;;;;;;;;;21.47;38.48;99654.00;4517718;31;741323;-86
2022/10/11 05:40:29;;;;;;;;;;;;;;;21.52;38.43;99651.28;4512483;31;736843;-85
2022/10/11 05:43:09;;;;;;;;;;;;;;;21.15;38.80;99646.81;4479849;31;785994;-89
2022/10/11 05:45:50;;;;;;;;;;;;;;;20.88;39.85;99666.75;4468891;31;790789;-86
2022/10/11 05:48:31;;;;;;;;;;;;;;;21.27;38.99;99666.75;4491598;31;799490;-85
2022/10/11 05:51:11;;;;;;;;;;;;;;;20.79;39.81;99670.44;4469541;31;785014;-85
2022/10/11 05:53:52;;;;;;;;;;;;;;;21.18;39.41;99670.50;4485551;31;790307;-83
2022/10/11 05:56:34;;;;;;;;;;;;;;;21.62;38.66;99673.87;4515051;31;861385;-89
2022/10/11 05:59:16;;;;;;;;;;;;;;;21.23;39.11;99671.25;4517144;31;738556;-86
2022/10/11 06:01:57;;;;;;;;;;;;;;;21.74;38.36;99675.34;4488629;31;788387;-85
2022/10/11 06:04:36;;;;;;;;;;;;;;;21.80;37.25;99678.72;4517503;31;740078;-85
2022/10/11 06:07:17;;;;;;;;;;;;;;;21.32;37.75;99678.94;4484354;31;794286;-86
2022/10/11 06:09:56;;;;;;;;;;;;;;;21.15;38.62;99678.47;4496336;31;789420;-93
2022/10/11 06:12:37;;;;;;;;;;;;;;;21.69;38.24;99679.88;4508814;31;739435;-86
2022/10/11 06:15:16;;;;;;;;;;;;;;;21.73;38.24;99681.53;4487341;31;794767;-94
2022/10/11 06:17:58;;;;;;;;;;;;;;;21.42;38.54;99687.53;4518808;31;736500;-85
2022/10/11 06:20:40;;;;;;;;;;;;;;;21.35;38.23;99683.31;4518907;31;738926;-85
2022/10/11 06:23:19;;;;;;;;;;;;;;;21.97;37.32;99685.31;4519317;31;735143;-87
2022/10/11 06:26:03;;;;;;;;;;;;;;;21.71;37.55;99692.16;4523326;31;743782;-89
2022/10/11 06:28:45;;;;;;;;;;;;;;;22.23;36.85;99692.59;4520943;31;739750;-89
2022/10/11 06:31:29;;;;;;;;;;;;;;;22.28;36.94;99691.59;4471417;31;788055;-95
2022/10/11 06:34:11;;;;;;;;;;;;;;;22.17;37.60;99701.56;4519872;31;737780;-86
2022/10/11 06:36:52;;;;;;;;;;;;;;;21.64;38.01;99693.19;4520292;31;752139;-87
2022/10/11 06:39:35;;;;;;;;;;;;;;;22.13;37.51;99694.59;4518970;31;739333;-89
2022/10/11 06:42:15;;;;;;;;;;;;;;;22.11;37.57;99693.75;4512554;31;752144;-93
2022/10/11 06:44:57;;;;;;;;;;;;;;;22.42;35.93;99699.13;4517963;31;746432;-93
2022/10/11 06:47:38;;;;;;;;;;;;;;;22.03;36.26;99695.75;4476477;31;797004;-89
2022/10/11 06:50:19;;;;;;;;;;;;;;;21.72;37.26;99701.78;4496826;31;790333;-88
2022/10/11 06:53:21;;;;;;;;;;;;;;;21.55;37.68;99701.31;4472357;31;793912;-87
2022/10/11 06:56:06;;;;;;;;;;;;;;;21.40;37.92;99699.03;4502015;31;789674;-93
2022/10/11 06:58:49;;;;;;;;;;;;;;;21.77;37.62;99705.16;4467042;31;834822;-87
2022/10/11 07:01:31;;;;;;;;;;;;;;;21.25;38.32;99709.00;4474622;31;791152;-90
2022/10/11 07:04:13;;;;;;;;;;;;;;;20.71;39.16;99708.38;4470752;31;794595;-86
2022/10/11 07:06:53;;;;;;;;;;;;;;;21.14;38.68;99716.28;4484633;31;793463;-87
2022/10/11 07:09:34;;;;;;;;;;;;;;;20.94;39.43;99715.81;4518540;31;745273;-86
2022/10/11 07:12:17;;;;;;;;;;;;;;;21.19;38.46;99711.75;4517372;31;749994;-92
2022/10/11 07:14:59;;;;;;;;;;;;;;;21.24;39.56;99706.38;4505195;31;748336;-86
2022/10/11 07:17:41;;;;;;;;;;;;;;;20.97;39.73;99726.31;4506732;31;752968;-84
2022/10/11 07:20:22;;;;;;;;;;;;;;;21.49;39.61;99719.94;4489097;31;792023;-85
2022/10/11 07:23:03;;;;;;;;;;;;;;;21.80;38.89;99718.28;4518949;31;735739;-86
2022/10/11 07:25:44;;;;;;;;;;;;;;;21.44;38.13;99711.25;4510468;31;734650;-85
2022/10/11 07:28:27;;;;;;;;;;;;;;;22.16;36.93;99720.09;4500509;31;830028;-86
2022/10/11 07:31:10;;;;;;;;;;;;;;;22.01;38.43;99722.19;4517568;31;736786;-86
2022/10/11 07:33:51;;;;;;;;;;;;;;;22.53;37.76;99719.97;4518849;31;731712;-89
2022/10/11 07:36:34;;;;;;;;;;;;;;;22.45;37.45;99721.97;4484248;31;796607;-85
2022/10/11 07:39:16;;;;;;;;;;;;;;;21.46;38.47;99722.62;4484421;31;797023;-88
2022/10/11 07:41:57;;;;;;;;;;;;;;;20.92;39.32;99723.78;4518750;31;744430;-95
2022/10/11 07:44:39;;;;;;;;;;;;;;;21.59;38.49;99718.78;4484720;31;792367;-86
2022/10/11 07:47:19;;;;;;;;;;;;;;;22.06;38.77;99724.72;4507110;31;732502;-86
2022/10/11 07:50:01;;;;;;;;;;;;;;;21.96;38.73;99720.56;4518355;31;747394;-85
2022/10/11 07:52:42;;;;;;;;;;;;;;;22.42;37.81;99719.41;4501119;31;804991;-86
2022/10/11 07:55:24;;;;;;;;;;;;;;;22.53;38.79;99718.19;4518176;31;751332;-86
2022/10/11 07:58:03;;;;;;;;;;;;;;;22.27;38.85;99720.66;4501307;31;802228;-85
2022/10/11 08:00:42;;;;;;;;;;;;;;;21.58;40.08;99730.25;4515120;31;864007;-85
2022/10/11 08:03:21;;;;;;;;;;;;;;;21.24;41.52;99730.97;4501611;31;795274;-85
2022/10/11 08:06:01;;;;;;;;;;;;;;;21.01;41.70;99731.47;4484318;31;800065;-85
2022/10/11 08:08:43;;;;;;;;;;;;;;;21.30;41.66;99722.94;4518944;31;730757;-85
2022/10/11 08:11:22;;;;;;;;;;;;;;;21.52;41.20;99725.16;4518734;31;740143;-94
2022/10/11 08:14:05;;;;;;;;;;;;;;;22.11;40.95;99728.09;4518992;31;738509;-85
2022/10/11 08:16:45;;;;;;;;;;;;;;;22.33;40.93;99736.38;4484688;31;791343;-91
2022/10/11 08:19:27;;;;;;;;;;;;;;;23.10;38.78;99727.19;4518864;31;737899;-85
2022/10/11 08:22:08;;;;;;;;;;;;;;;23.51;38.14;99725.94;4519097;31;736050;-85
2022/10/11 08:24:47;;;;;;;;;;;;;;;23.45;39.07;99725.25;4484589;31;794300;-96
2022/10/11 08:27:29;;;;;;;;;;;;;;;23.04;39.61;99724.75;4484439;31;792054;-88
2022/10/11 08:30:11;;;;;;;;;;;;;;;23.24;39.64;99727.66;4519227;31;734018;-87
2022/10/11 08:32:53;;;;;;;;;;;;;;;24.07;38.52;99730.38;4518940;31;740142;-86
2022/10/11 08:35:34;;;;;;;;;;;;;;;24.22;38.35;99729.84;4518658;31;740074;-89
2022/10/11 08:38:14;;;;;;;;;;;;;;;23.75;38.85;99728.75;4484294;31;806423;-86
2022/10/11 08:40:57;;;;;;;;;;;;;;;24.25;37.92;99727.09;4518883;31;736345;-94
2022/10/11 08:43:42;;;;;;;;;;;;;;;24.08;38.64;99721.50;4518932;31;736445;-86
2022/10/11 08:46:09;;;;;;;;;;;;;;;24.08;38.64;99721.50;4534511;31;34036;-85
2022/10/11 08:48:40;;;;;;;;;;;;;;;23.22;39.68;99731.25;4525481;31;34320;-84
2022/10/11 08:51:10;;;;;;;;;;;;;;;23.66;38.73;99729.94;4526058;31;34274;-86
2022/10/11 08:54:06;;;;;;;;;;;;;;;22.39;41.31;99735.34;4525739;31;33677;-87
2022/10/11 08:56:34;;;;;;;;;;;;;;;23.62;38.66;99733.56;4502837;31;33701;-85
2022/10/11 08:59:03;;;;;;;;;;;;;;;23.64;37.99;99729.09;4525746;31;35151;-85
2022/10/11 09:01:30;;;;;;;;;;;;;;;23.14;40.16;99728.84;4525730;31;34913;-85
2022/10/11 09:03:59;;;;;;;;;;;;;;;23.33;40.08;99733.59;4525618;31;33909;-85
2022/10/11 09:06:33;;;;;;;;;;;;;;;22.60;41.23;99737.41;4526962;31;33960;-85
2022/10/11 09:09:12;;;;;;;;;;;;;;;23.34;40.12;99732.69;4527003;31;35140;-85
2022/10/11 09:11:52;;;;;;;;;;;;;;;23.44;39.68;99728.84;4526830;31;34850;-94
2022/10/11 09:14:38;;;;;;;;;;;;;;;23.46;39.29;99732.31;4525704;31;34825;-85
2022/10/11 09:17:09;;;;;;;;;;;;;;;23.26;40.05;99740.84;4525704;31;34086;-85
2022/10/11 09:19:54;;;;;;;;;;;;;;;23.57;39.14;99727.56;4525658;31;34362;-95
2022/10/11 09:22:35;;;;;;;;;;;;;;;23.75;39.92;99740.25;4525651;31;35268;-93
2022/10/11 09:25:08;;;;;;;;;;;;;;;23.82;39.18;99730.28;4525575;31;34118;-96
2022/10/11 09:27:37;;;;;;;;;;;;;;;23.68;40.21;99744.00;4525559;31;33369;-86
2022/10/11 09:30:24;;;;;;;;;;;;;;;23.41;41.49;99739.50;4525792;31;34501;-90
2022/10/11 09:33:10;;;;;;;;;;;;;;;23.13;40.99;99748.28;4526411;31;35444;-86
2022/10/11 09:35:39;;;;;;;;;;;;;;;23.47;40.62;99752.56;4526922;31;34710;-87
2022/10/11 09:38:10;;;;;;;;;;;;;;;23.90;39.71;99743.28;4525354;31;33570;-94
2022/10/11 09:40:53;;;;;;;;;;;;;;;23.99;40.39;99745.66;4525461;31;34356;-85
2022/10/11 09:43:21;;;;;;;;;;;;;;;24.08;40.37;99747.97;4525161;31;34850;-86
2022/10/11 09:45:48;;;;;;;;;;;;;;;24.41;39.96;99748.66;4526716;31;33523;-87
2022/10/11 09:48:18;;;;;;;;;;;;;;;24.54;40.12;99753.53;4525465;31;33302;-89
2022/10/11 09:50:45;;;;;;;;;;;;;;;24.31;40.81;99752.50;4525306;31;33732;-93
2022/10/11 09:53:12;;;;;;;;;;;;;;;24.52;39.71;99743.00;4523824;31;33877;-86
2022/10/11 09:55:45;;;;;;;;;;;;;;;23.22;42.68;99755.06;4515959;31;33867;-86
2022/10/11 09:58:25;;;;;;;;;;;;;;;24.57;40.12;99746.34;4516338;31;32679;-85
2022/10/11 10:01:03;;;;;;;;;;;;;;;23.91;40.95;99755.63;4515814;31;34047;-86
2022/10/11 10:03:39;;;;;;;;;;;;;;;22.91;42.01;99755.94;4515886;31;33998;-96
2022/10/11 10:06:23;;;;;;;;;;;;;;;22.69;43.00;99758.31;4514743;31;34053;-86
2022/10/11 10:08:50;;;;;;;;;;;;;;;24.15;40.08;99746.00;4514704;31;33285;-86
2022/10/11 10:11:18;;;;;;;;;;;;;;;24.51;38.90;99746.56;4514646;31;32630;-83
2022/10/11 10:13:53;;;;;;;;;;;;;;;23.43;41.78;99743.00;4514340;31;34979;-83
2022/10/11 10:16:38;;;;;;;;;;;;;;;23.75;40.84;99737.59;4514330;31;33993;-83
2022/10/11 10:19:06;;;;;;;;;;;;;;;23.70;40.38;99742.16;4514440;31;34096;-83
2022/10/11 10:21:34;;;;;;;;;;;;;;;24.22;40.49;99736.94;4501430;31;35099;-94
2022/10/11 10:24:07;;;;;;;;;;;;;;;24.13;39.84;99737.22;4514312;31;34155;-83
2022/10/11 10:26:34;;;;;;;;;;;;;;;23.59;41.10;99727.50;4514321;31;33508;-93
2022/10/11 10:29:04;;;;;;;;;;;;;;;24.51;39.29;99735.97;4514355;31;34140;-84
2022/10/11 10:31:34;;;;;;;;;;;;;;;24.21;38.91;99738.72;4514425;31;33761;-84
2022/10/11 10:34:25;;;;;;;;;;;;;;;24.76;38.03;99730.62;4515771;31;34324;-84
2022/10/11 10:36:56;;;;;;;;;;;;;;;24.84;38.81;99733.87;4514359;31;34405;-84
2022/10/11 10:39:36;;;;;;;;;;;;;;;24.07;39.33;99735.66;4514248;31;34139;-87
2022/10/11 10:42:05;;;;;;;;;;;;;;;24.90;38.65;99743.41;4514309;31;35022;-86
2022/10/11 10:44:32;;;;;;;;;;;;;;;24.99;39.34;99738.59;4514223;31;34511;-94
2022/10/11 10:47:02;;;;;;;;;;;;;;;24.76;38.43;99736.81;4515547;31;34223;-90
2022/10/11 10:49:39;;;;;;;;;;;;;;;24.54;37.80;99741.13;4514307;31;33444;-86
2022/10/11 10:52:39;;;;;;;;;;;;;;;25.32;36.45;99730.34;4514459;31;34353;-84
2022/10/11 10:55:24;;;;;;;;;;;;;;;25.25;36.23;99734.13;4516118;31;34260;-88
2022/10/11 10:58:04;;;;;;;;;;;;;;;25.19;37.44;99729.06;4515536;31;35163;-86
2022/10/11 11:00:50;;;;;;;;;;;;;;;25.01;37.31;99733.25;4514228;31;34158;-93
2022/10/11 11:03:20;;;;;;;;;;;;;;;25.44;37.08;99729.84;4515328;31;34317;-84
2022/10/11 11:05:56;;;;;;;;;;;;;;;24.67;37.50;99726.53;4514496;31;34357;-96
2022/10/11 11:08:30;;;;;;;;;;;;;;;24.79;37.19;99724.38;4514127;31;35016;-94
2022/10/11 11:11:03;;;;;;;;;;;;;;;25.06;36.41;99723.34;4515539;31;33077;-86
2022/10/11 11:13:36;;;;;;;;;;;;;;;25.40;37.09;99719.41;4515219;31;35234;-86
2022/10/11 11:16:22;;;;;;;;;;;;;;;26.03;36.09;99722.22;4515468;31;34052;-96
2022/10/11 11:18:49;;;;;;;;;;;;;;;25.99;35.42;99724.16;4514246;31;34012;-85
2022/10/11 11:21:25;;;;;;;;;;;;;;;25.64;35.68;99721.09;4515347;31;34190;-86
2022/10/11 11:24:02;;;;;;;;;;;;;;;25.85;35.13;99727.37;4515329;31;34167;-95
2022/10/11 11:26:32;;;;;;;;;;;;;;;25.31;36.28;99727.75;4513973;31;35168;-87
2022/10/11 11:29:02;;;;;;;;;;;;;;;26.07;35.26;99722.03;4515292;31;33991;-95
2022/10/11 11:31:29;;;;;;;;;;;;;;;25.76;37.06;99725.06;4514316;31;33466;-94
2022/10/11 11:34:02;;;;;;;;;;;;;;;26.28;35.98;99722.03;4515437;31;34708;-88
2022/10/11 11:36:46;;;;;;;;;;;;;;;26.18;36.32;99722.44;4515359;31;35565;-84
2022/10/11 11:39:24;;;;;;;;;;;;;;;26.19;36.05;99716.19;4514047;31;33965;-84
2022/10/11 11:41:51;;;;;;;;;;;;;;;26.13;35.41;99712.91;4513965;31;33403;-94
2022/10/11 11:44:27;;;;;;;;;;;;;;;26.05;35.67;99715.03;4514699;31;34278;-90
2022/10/11 11:47:24;;;;;;;;;;;;;;;25.10;37.48;99710.84;4515155;31;34441;-89
2022/10/11 11:49:57;;;;;;;;;;;;;;;25.31;37.22;99711.81;4501759;31;34857;-85
2022/10/11 11:52:26;;;;;;;;;;;;;;;26.02;36.10;99710.72;4515111;31;34295;-93
2022/10/11 11:55:12;;;;;;;;;;;;;;;25.61;36.89;99710.59;4513699;31;33894;-94
2022/10/11 11:57:52;;;;;;;;;;;;;;;25.67;37.28;99710.34;4514868;31;34381;-84
2022/10/11 12:00:20;;;;;;;;;;;;;;;26.78;34.71;99700.34;4500609;31;34193;-92
2022/10/11 12:02:54;;;;;;;;;;;;;;;26.45;35.51;99708.91;4513698;31;33892;-93
2022/10/11 12:05:24;;;;;;;;;;;;;;;26.61;35.09;99698.47;4513562;31;34158;-92
2022/10/11 12:07:53;;;;;;;;;;;;;;;26.38;35.98;99702.13;4500670;31;33554;-84
2022/10/11 12:10:21;;;;;;;;;;;;;;;26.07;35.74;99698.13;4514999;31;33746;-91
2022/10/11 12:12:48;;;;;;;;;;;;;;;25.93;35.65;99690.72;4514636;31;33783;-85
2022/10/11 12:15:19;;;;;;;;;;;;;;;26.52;35.44;99691.78;4513862;31;34088;-91
2022/10/11 12:17:55;;;;;;;;;;;;;;;26.50;35.21;99688.31;4513253;31;35271;-95
2022/10/11 12:20:24;;;;;;;;;;;;;;;26.54;34.47;99684.56;4515046;31;34109;-84
2022/10/11 12:22:51;;;;;;;;;;;;;;;25.71;36.40;99700.47;4513561;31;32714;-93
2022/10/11 12:25:21;;;;;;;;;;;;;;;25.01;37.52;99696.13;4514913;31;34240;-92
2022/10/11 12:27:49;;;;;;;;;;;;;;;25.10;37.44;99685.19;4514660;31;33954;-92
2022/10/11 12:30:40;;;;;;;;;;;;;;;25.59;36.57;99691.22;4514895;31;34161;-92
2022/10/11 12:33:27;;;;;;;;;;;;;;;26.04;35.63;99692.91;4506850;31;33355;-85
2022/10/11 12:35:54;;;;;;;;;;;;;;;25.86;35.52;99683.06;4514820;31;35077;-85
2022/10/11 12:38:28;;;;;;;;;;;;;;;25.46;36.54;99685.53;4514705;31;35404;-84
2022/10/11 12:41:07;;;;;;;;;;;;;;;25.73;36.85;99688.84;4514508;31;33848;-94
2022/10/11 12:43:55;;;;;;;;;;;;;;;25.75;36.95;99685.28;4514563;31;34153;-93
2022/10/11 12:46:28;;;;;;;;;;;;;;;25.83;36.37;99683.19;4514268;31;33722;-91
2022/10/11 12:49:04;;;;;;;;;;;;;;;25.50;37.53;99686.28;4514739;31;34546;-93
2022/10/11 12:51:36;;;;;;;;;;;;;;;26.15;36.49;99681.84;4514402;31;34230;-88
2022/10/11 12:54:03;;;;;;;;;;;;;;;26.18;36.54;99677.25;4513241;31;33765;-84
2022/10/11 12:56:59;;;;;;;;;;;;;;;26.29;36.06;99675.91;4514370;31;33940;-93
2022/10/11 12:59:26;;;;;;;;;;;;;;;26.10;36.55;99679.38;4513169;31;34831;-86
2022/10/11 13:01:54;;;;;;;;;;;;;;;26.30;36.76;99678.53;4513049;31;34528;-93
2022/10/11 13:04:29;;;;;;;;;;;;;;;25.78;35.84;99679.84;4512927;31;33087;-93
2022/10/11 13:07:10;;;;;;;;;;;;;;;25.75;35.18;99674.66;4513974;31;34033;-87
2022/10/11 13:09:38;;;;;;;;;;;;;;;26.45;34.61;99679.66;4512860;31;35356;-93
2022/10/11 13:12:19;;;;;;;;;;;;;;;26.30;35.77;99688.28;4513266;31;34761;-92
2022/10/11 13:14:49;;;;;;;;;;;;;;;26.13;35.24;99678.38;4513033;31;33199;-93
2022/10/11 13:17:25;;;;;;;;;;;;;;;26.38;35.62;99683.50;4499738;31;34373;-85
2022/10/11 13:20:04;;;;;;;;;;;;;;;26.27;36.25;99680.44;4512902;31;34155;-85
2022/10/11 13:22:33;;;;;;;;;;;;;;;26.51;35.82;99673.22;4514079;31;33987;-86
2022/10/11 13:25:02;;;;;;;;;;;;;;;26.19;37.08;99678.12;4512503;31;33420;-91
2022/10/11 13:27:30;;;;;;;;;;;;;;;26.15;37.38;99681.84;4513854;31;33687;-93
2022/10/11 13:29:58;;;;;;;;;;;;;;;26.45;36.82;99687.63;4513484;31;34384;-92
2022/10/11 13:32:26;;;;;;;;;;;;;;;26.60;36.28;99680.78;4516292;31;34161;-91
2022/10/11 13:34:56;;;;;;;;;;;;;;;26.58;36.70;99680.84;4514671;31;34382;-85
2022/10/11 13:37:24;;;;;;;;;;;;;;;26.72;36.86;99684.69;4514896;31;34302;-93
2022/10/11 13:39:52;;;;;;;;;;;;;;;26.56;36.95;99679.22;4515824;31;35340;-91